Fairview, Michigan
Current Conditions -  °F | °C
As of 5:18 AM on Thursday 23 Oct 2014 (Local Time) from KAPN Reporting Station
Scattered Clouds Scattered Clouds  
Wind Chill: 24°   Ceiling: Unl
Heat Index: 24°   Visibility: 10mi
Dew Point: 21°   Wind: 0mph
Humidity: 88%   Direction: NA
Pressure: 30.25"   Gusts: NA
Location:  44.73°N, 84.05°W
Report Text: KAPN 230918Z AUTO 00000KT 10SM SCT002 M04/M06 A3025 RMK AO2 T10441061
Loading
Personal Weather Stations






























Interactive Weather Map
Tropical Storm Tracking
New forecast layout! Learn more

10-Day Weather Forecast

Advertisements
Track Severe Weather on mobile